Time;durP1;ratioP1;P1;durP2;ratioP2;P2;SDS_P1;SDS_P2;PMS_P1;PMS_P2;Temp;Humidity;BMP_temperature;BMP_pressure;BME280_temperature;BME280_humidity;BME280_pressure;Samples;Min_cycle;Max_cycle;Signal;HPM_P1;HPM_P2
2022/06/13 00:02:42;;;;;;;20.87;10.07;;;12.60;99.90;;;;;;4424591;28;659364;-70
2022/06/13 00:05:30;;;;;;;18.17;10.30;;;12.60;99.90;;;;;;4445422;28;658197;-70
2022/06/13 00:08:18;;;;;;;15.47;9.70;;;12.60;99.90;;;;;;4423030;28;659248;-70
2022/06/13 00:11:06;;;;;;;15.17;9.60;;;12.50;99.90;;;;;;4434196;28;657581;-70
2022/06/13 00:13:54;;;;;;;17.80;10.20;;;12.50;99.90;;;;;;4441917;28;658208;-69
2022/06/13 00:16:41;;;;;;;16.33;10.30;;;12.50;99.90;;;;;;4403039;28;659010;-69
2022/06/13 00:19:29;;;;;;;12.97;9.20;;;12.60;99.90;;;;;;4425177;28;658611;-70
2022/06/13 00:22:17;;;;;;;19.67;10.70;;;12.60;99.90;;;;;;4402854;28;657813;-69
2022/06/13 00:25:05;;;;;;;22.10;11.47;;;12.70;99.90;;;;;;4425693;28;659250;-70
2022/06/13 00:27:52;;;;;;;17.07;10.53;;;12.60;99.90;;;;;;4403847;28;659828;-70
2022/06/13 00:30:39;;;;;;;16.50;10.10;;;12.70;99.90;;;;;;4431779;28;658077;-70
2022/06/13 00:33:26;;;;;;;14.07;9.90;;;12.80;99.90;;;;;;4402498;28;658583;-70
2022/06/13 00:36:13;;;;;;;20.47;9.93;;;12.60;99.90;;;;;;4424995;28;657657;-70
2022/06/13 00:39:02;;;;;;;15.83;9.50;;;12.60;99.90;;;;;;4405930;28;657483;-70
2022/06/13 00:41:49;;;;;;;15.03;9.43;;;12.50;99.90;;;;;;4428136;28;658002;-69
2022/06/13 00:44:37;;;;;;;17.77;9.30;;;12.50;99.90;;;;;;4418172;28;657350;-70
2022/06/13 00:47:24;;;;;;;15.20;8.97;;;12.40;99.90;;;;;;4446922;28;657624;-69
2022/06/13 00:50:14;;;;;;;16.37;9.10;;;12.40;99.90;;;;;;4425361;28;657809;-70
2022/06/13 00:53:03;;;;;;;17.83;8.63;;;12.40;99.90;;;;;;4421985;28;657912;-70
2022/06/13 00:55:56;;;;;;;12.00;7.87;;;12.30;99.90;;;;;;4422430;28;657341;-70
2022/06/13 00:58:45;;;;;;;17.83;9.63;;;12.30;99.90;;;;;;4404627;28;658113;-70
2022/06/13 01:01:33;;;;;;;16.20;9.80;;;12.30;99.90;;;;;;4421873;28;658597;-70
2022/06/13 01:04:20;;;;;;;12.13;8.97;;;12.20;99.90;;;;;;4436982;28;657644;-70
2022/06/13 01:07:08;;;;;;;15.68;9.45;;;12.10;99.90;;;;;;4449791;28;657939;-70
2022/06/13 01:13:03;;;;;;;13.93;9.50;;;12.20;99.90;;;;;;4409610;28;658707;-70
2022/06/13 01:16:02;;;;;;;17.33;9.70;;;12.30;99.90;;;;;;4420485;28;657520;-70
2022/06/13 01:19:02;;;;;;;14.97;9.37;;;12.20;99.90;;;;;;4416906;28;657910;-70
2022/06/13 01:21:51;;;;;;;16.53;9.50;;;12.30;99.90;;;;;;4415156;28;657393;-70
2022/06/13 01:24:58;;;;;;;12.23;9.50;;;12.20;99.90;;;;;;4422920;28;658063;-70
2022/06/13 01:28:01;;;;;;;13.47;8.70;;;12.10;99.90;;;;;;4418854;28;657761;-70
2022/06/13 01:30:56;;;;;;;12.63;8.63;;;12.10;99.90;;;;;;4416319;28;657834;-69
2022/06/13 01:33:50;;;;;;;12.93;9.00;;;12.10;99.90;;;;;;4415331;28;657638;-69
2022/06/13 01:36:40;;;;;;;17.37;9.57;;;12.10;99.90;;;;;;4398186;28;657845;-70
2022/06/13 01:39:41;;;;;;;15.37;9.63;;;12.20;99.90;;;;;;4420459;28;658115;-69
2022/06/13 01:42:34;;;;;;;16.13;9.97;;;12.20;99.90;;;;;;4418958;28;657680;-70
2022/06/13 01:45:25;;;;;;;14.17;8.80;;;12.20;99.90;;;;;;4394473;28;658650;-70
2022/06/13 01:48:20;;;;;;;16.80;9.10;;;12.20;99.90;;;;;;4422060;28;658122;-70
2022/06/13 01:51:11;;;;;;;11.63;8.50;;;12.20;99.90;;;;;;4422026;28;657722;-70
2022/06/13 01:54:02;;;;;;;15.30;9.30;;;12.20;99.90;;;;;;4419296;28;658059;-70
2022/06/13 01:56:53;;;;;;;11.03;8.37;;;12.20;99.90;;;;;;4419155;28;657369;-70
2022/06/13 01:59:43;;;;;;;13.97;8.27;;;12.20;99.90;;;;;;4392888;28;658761;-71
2022/06/13 02:02:33;;;;;;;11.47;7.70;;;12.10;99.90;;;;;;4420945;28;658273;-70
2022/06/13 02:05:23;;;;;;;11.20;7.93;;;12.20;99.90;;;;;;4419470;28;657509;-71
2022/06/13 02:08:12;;;;;;;11.83;7.70;;;12.10;99.90;;;;;;4421003;28;657759;-70
2022/06/13 02:11:02;;;;;;;9.83;8.20;;;12.20;99.90;;;;;;4451111;28;657892;-70
2022/06/13 02:13:50;;;;;;;9.90;7.67;;;12.10;99.90;;;;;;4424418;28;656685;-70
2022/06/13 02:16:40;;;;;;;9.70;7.60;;;12.10;99.90;;;;;;4418515;28;656911;-70
2022/06/13 02:19:31;;;;;;;10.53;8.00;;;12.10;99.90;;;;;;4422277;28;656968;-69
2022/06/13 02:22:22;;;;;;;12.13;8.30;;;12.10;99.90;;;;;;4415628;28;658862;-68
2022/06/13 02:25:11;;;;;;;12.77;8.53;;;12.00;99.90;;;;;;4419448;28;657826;-68
2022/06/13 02:28:00;;;;;;;12.23;8.43;;;12.00;99.90;;;;;;4414560;28;657721;-69
2022/06/13 02:30:48;;;;;;;14.33;8.60;;;12.00;99.90;;;;;;4417524;28;658573;-67
2022/06/13 02:33:36;;;;;;;10.27;8.17;;;12.00;99.90;;;;;;4419536;28;657761;-69
2022/06/13 02:36:26;;;;;;;12.20;8.27;;;12.00;99.90;;;;;;4438198;28;657394;-69
2022/06/13 02:39:18;;;;;;;11.87;7.73;;;11.90;99.90;;;;;;4418929;28;657632;-68
2022/06/13 02:42:06;;;;;;;10.43;8.00;;;11.90;99.90;;;;;;4397903;28;658516;-69
2022/06/13 02:44:57;;;;;;;11.93;8.23;;;12.00;99.90;;;;;;4440130;28;658545;-68
2022/06/13 02:47:46;;;;;;;10.20;8.23;;;12.00;99.90;;;;;;4420318;28;658780;-68
2022/06/13 02:50:40;;;;;;;10.60;8.20;;;11.90;99.90;;;;;;4419180;28;658418;-69
2022/06/13 02:53:30;;;;;;;10.10;8.03;;;12.00;99.90;;;;;;4422205;28;657758;-69
2022/06/13 02:56:27;;;;;;;9.83;8.30;;;12.10;99.90;;;;;;4419402;28;658305;-69
2022/06/13 02:59:18;;;;;;;15.40;8.17;;;12.30;99.90;;;;;;4442886;28;657383;-69
2022/06/13 03:02:05;;;;;;;10.97;8.57;;;12.30;99.90;;;;;;4426846;28;657568;-69
2022/06/13 03:04:55;;;;;;;13.17;8.63;;;12.40;99.90;;;;;;4434841;28;657938;-68
2022/06/13 03:07:46;;;;;;;10.13;7.87;;;12.50;99.90;;;;;;4425494;28;657703;-68
2022/06/13 03:10:37;;;;;;;10.43;8.40;;;12.60;99.90;;;;;;4419522;28;658121;-69
2022/06/13 03:13:30;;;;;;;9.40;7.80;;;12.80;99.90;;;;;;4419125;28;657484;-68
2022/06/13 03:16:21;;;;;;;10.13;7.07;;;13.10;99.90;;;;;;4397929;28;656754;-69
2022/06/13 03:19:12;;;;;;;9.47;7.17;;;13.10;99.90;;;;;;4421612;28;657659;-69
2022/06/13 03:22:03;;;;;;;8.57;7.00;;;13.10;99.90;;;;;;4424076;28;657567;-69
2022/06/13 03:24:53;;;;;;;16.67;8.50;;;13.20;99.90;;;;;;4400806;28;656893;-69
2022/06/13 03:27:42;;;;;;;9.83;8.60;;;13.40;99.90;;;;;;4431295;28;657648;-70
2022/06/13 03:30:31;;;;;;;10.80;8.17;;;13.60;99.90;;;;;;4444872;28;657995;-69
2022/06/13 03:36:30;;;;;;;13.57;7.30;;;13.70;99.90;;;;;;4400815;28;658192;-69
2022/06/13 03:39:18;;;;;;;8.23;7.17;;;13.90;99.90;;;;;;4417721;28;659053;-69
2022/06/13 03:42:07;;;;;;;9.03;6.93;;;13.90;99.90;;;;;;4429435;28;656999;-69
2022/06/13 03:44:56;;;;;;;8.57;7.10;;;14.00;99.90;;;;;;4445692;28;657562;-69
2022/06/13 03:47:47;;;;;;;10.10;7.23;;;14.00;99.90;;;;;;4418041;28;657000;-69
2022/06/13 03:50:37;;;;;;;7.77;6.73;;;14.00;99.90;;;;;;4420481;28;657775;-70
2022/06/13 03:53:26;;;;;;;7.23;6.53;;;14.10;99.90;;;;;;4428023;28;656185;-69
2022/06/13 03:56:15;;;;;;;9.80;6.00;;;14.10;99.90;;;;;;4415753;28;656629;-69
2022/06/13 03:59:04;;;;;;;9.37;6.80;;;14.30;99.90;;;;;;4424279;28;657621;-69
2022/06/13 04:01:54;;;;;;;7.80;7.00;;;14.40;99.90;;;;;;4423283;28;656486;-70
2022/06/13 04:04:44;;;;;;;10.07;6.53;;;14.60;99.90;;;;;;4422423;28;656324;-69
2022/06/13 04:07:33;;;;;;;9.10;6.87;;;14.60;99.90;;;;;;4420700;28;657586;-69
2022/06/13 04:10:22;;;;;;;11.33;7.83;;;14.70;99.90;;;;;;4434887;28;656507;-69
2022/06/13 04:13:16;;;;;;;10.00;7.77;;;15.00;99.90;;;;;;4443631;28;657372;-69
2022/06/13 04:16:12;;;;;;;8.93;7.32;;;15.20;99.90;;;;;;4418439;28;657782;-69
2022/06/13 04:19:09;;;;;;;8.97;7.40;;;15.20;99.90;;;;;;4416688;28;656594;-69
2022/06/13 04:22:02;;;;;;;12.23;7.33;;;15.20;99.90;;;;;;4424342;28;657017;-69
2022/06/13 04:24:56;;;;;;;8.87;6.60;;;15.30;99.90;;;;;;4417214;28;658012;-69
2022/06/13 04:27:47;;;;;;;7.63;6.83;;;15.50;99.90;;;;;;4418843;28;656611;-69
2022/06/13 04:30:35;;;;;;;11.03;7.30;;;15.40;99.90;;;;;;4418558;28;656878;-69
2022/06/13 04:33:25;;;;;;;10.27;7.07;;;15.50;99.90;;;;;;4444544;28;658722;-69
2022/06/13 04:36:13;;;;;;;10.10;7.60;;;15.50;99.90;;;;;;4415439;28;658204;-69
2022/06/13 04:39:04;;;;;;;7.13;5.50;;;15.60;99.90;;;;;;4421163;28;657740;-70
2022/06/13 04:41:51;;;;;;;9.90;5.82;;;15.60;99.90;;;;;;4423182;28;656928;-69
2022/06/13 04:44:39;;;;;;;6.77;5.20;;;15.70;99.90;;;;;;4443738;28;656898;-69
2022/06/13 04:47:26;;;;;;;7.93;5.40;;;15.90;99.90;;;;;;4421995;28;657399;-70
2022/06/13 04:50:15;;;;;;;7.00;5.23;;;16.10;99.90;;;;;;4440110;28;657174;-70
2022/06/13 04:53:02;;;;;;;6.23;5.00;;;16.30;99.90;;;;;;4421125;28;657524;-69
2022/06/13 04:55:52;;;;;;;7.33;4.60;;;16.60;99.90;;;;;;4444016;28;656211;-69
2022/06/13 04:58:39;;;;;;;6.63;4.80;;;16.60;99.90;;;;;;4415832;28;656833;-69
2022/06/13 05:01:28;;;;;;;9.63;4.70;;;16.70;99.90;;;;;;4422507;28;656977;-69
2022/06/13 05:04:16;;;;;;;6.53;4.00;;;16.90;99.90;;;;;;4426213;28;656496;-69
2022/06/13 05:07:10;;;;;;;5.73;4.17;;;17.00;99.90;;;;;;4442066;28;656540;-69
2022/06/13 05:10:00;;;;;;;5.17;4.60;;;17.00;99.90;;;;;;4398520;28;657062;-69
2022/06/13 05:12:49;;;;;;;5.80;3.83;;;17.10;99.90;;;;;;4419938;28;657366;-69
2022/06/13 05:15:36;;;;;;;7.37;3.90;;;17.30;99.90;;;;;;4422570;28;656845;-69
2022/06/13 05:18:39;;;;;;;5.67;4.23;;;17.50;99.90;;;;;;4442393;28;657818;-69
2022/06/13 05:21:41;;;;;;;8.70;4.00;;;17.70;99.90;;;;;;4417249;28;656639;-69
2022/06/13 05:24:41;;;;;;;4.63;3.73;;;18.00;99.90;;;;;;4416443;28;658129;-69
2022/06/13 05:27:28;;;;;;;5.90;4.03;;;18.30;99.90;;;;;;4417444;28;656638;-69
2022/06/13 05:30:17;;;;;;;4.73;3.80;;;18.40;99.90;;;;;;4426164;28;656691;-69
2022/06/13 05:33:04;;;;;;;5.73;3.57;;;18.60;99.90;;;;;;4442467;28;657310;-69
2022/06/13 05:35:54;;;;;;;3.53;3.13;;;18.90;99.90;;;;;;4419572;28;657187;-69
2022/06/13 05:38:42;;;;;;;4.83;3.27;;;19.00;99.90;;;;;;4422235;28;656817;-69
2022/06/13 05:41:29;;;;;;;5.90;3.70;;;19.00;99.90;;;;;;4439506;28;656402;-69
2022/06/13 05:44:17;;;;;;;4.23;3.70;;;19.20;99.90;;;;;;4420814;28;657516;-69
2022/06/13 05:47:08;;;;;;;5.00;3.70;;;19.40;99.90;;;;;;4439950;28;656822;-70
2022/06/13 05:49:55;;;;;;;5.00;3.90;;;19.40;99.90;;;;;;4432766;28;656484;-70
2022/06/13 05:52:42;;;;;;;6.20;4.00;;;19.40;99.90;;;;;;4441909;28;657124;-70
2022/06/13 05:55:29;;;;;;;5.60;3.37;;;19.40;99.90;;;;;;4443915;28;656949;-69
2022/06/13 05:58:17;;;;;;;5.97;3.30;;;19.60;99.90;;;;;;4420277;28;657169;-69
2022/06/13 06:01:05;;;;;;;5.87;3.57;;;19.80;99.90;;;;;;4498581;28;656163;-65
2022/06/13 06:03:53;;;;;;;5.33;3.53;;;20.00;99.90;;;;;;4424218;28;656954;-65
2022/06/13 06:06:40;;;;;;;4.33;3.23;;;20.20;99.90;;;;;;4421734;28;656597;-65
2022/06/13 06:09:28;;;;;;;3.97;2.97;;;20.60;99.90;;;;;;4442726;28;657592;-65
2022/06/13 06:12:15;;;;;;;3.80;2.87;;;20.60;99.90;;;;;;4437225;28;656710;-65
2022/06/13 06:15:02;;;;;;;6.90;3.30;;;20.50;99.90;;;;;;4448487;28;657873;-65
2022/06/13 06:17:49;;;;;;;4.13;3.03;;;20.50;99.90;;;;;;4442892;28;656843;-65
2022/06/13 06:20:38;;;;;;;5.33;3.30;;;20.40;99.90;;;;;;4420616;28;656578;-65
2022/06/13 06:23:26;;;;;;;4.83;3.20;;;20.50;99.90;;;;;;4425151;28;656536;-65
2022/06/13 06:26:13;;;;;;;5.97;2.90;;;20.60;99.90;;;;;;4446520;28;657063;-65
2022/06/13 06:29:01;;;;;;;4.83;3.17;;;20.80;99.90;;;;;;4426033;28;656760;-66
2022/06/13 06:31:48;;;;;;;4.30;2.93;;;20.80;99.90;;;;;;4441288;28;656870;-65
2022/06/13 06:34:36;;;;;;;5.10;3.40;;;20.80;99.90;;;;;;4434063;28;656244;-65
2022/06/13 06:37:24;;;;;;;6.03;3.20;;;20.50;99.90;;;;;;4444318;28;656352;-65
2022/06/13 06:40:12;;;;;;;7.05;3.70;;;20.20;99.90;;;;;;4426736;28;656570;-65
2022/06/13 06:42:59;;;;;;;7.77;4.10;;;20.00;99.90;;;;;;4441102;28;656758;-65
2022/06/13 06:45:46;;;;;;;7.00;3.93;;;19.90;99.90;;;;;;4420902;28;656935;-65
2022/06/13 06:48:33;;;;;;;9.37;4.30;;;19.70;99.90;;;;;;4432666;28;657732;-66
2022/06/13 06:51:20;;;;;;;9.70;4.80;;;19.50;99.90;;;;;;4373302;28;657917;-66
2022/06/13 07:00:17;;;;;;;7.90;5.00;;;19.60;99.90;;;;;;4360629;28;657788;-66
2022/06/13 07:03:04;;;;;;;7.37;5.43;;;20.00;99.90;;;;;;4446433;28;656935;-65
2022/06/13 07:05:52;;;;;;;10.40;5.73;;;20.50;99.90;;;;;;4421567;28;656536;-65
2022/06/13 07:08:39;;;;;;;7.93;6.10;;;20.50;99.90;;;;;;4433919;28;658008;-66
2022/06/13 07:14:34;;;;;;;9.20;5.63;;;20.80;99.90;;;;;;4398408;28;657943;-66
2022/06/13 07:17:21;;;;;;;10.37;5.77;;;21.20;99.90;;;;;;4426205;28;656735;-66
2022/06/13 07:20:10;;;;;;;12.80;5.43;;;20.90;99.90;;;;;;4441698;28;657652;-65
2022/06/13 07:22:57;;;;;;;10.17;6.50;;;20.80;99.90;;;;;;4420525;28;658370;-65
2022/06/13 07:25:45;;;;;;;11.40;6.70;;;20.80;99.90;;;;;;4436144;28;658168;-66
2022/06/13 07:28:34;;;;;;;14.47;7.03;;;21.10;99.90;;;;;;4446512;28;657432;-66
2022/06/13 07:31:23;;;;;;;12.87;6.37;;;20.90;99.90;;;;;;4423096;28;657630;-66
2022/06/13 07:34:14;;;;;;;12.50;7.40;;;21.20;99.90;;;;;;4426180;28;657203;-65
2022/06/13 07:37:02;;;;;;;13.10;7.03;;;21.50;99.90;;;;;;4421064;28;657429;-66
2022/06/13 07:39:49;;;;;;;8.43;5.63;;;21.60;99.90;;;;;;4446469;28;657256;-66
2022/06/13 07:42:37;;;;;;;12.20;5.47;;;21.80;99.90;;;;;;4427245;28;656382;-65
2022/06/13 07:45:28;;;;;;;11.10;5.27;;;22.10;99.90;;;;;;4437129;28;658211;-66
2022/06/13 07:48:16;;;;;;;6.70;5.00;;;22.30;95.20;;;;;;4424232;28;657451;-66
2022/06/13 07:51:05;;;;;;;10.00;4.53;;;22.20;95.70;;;;;;4440622;28;658856;-66
2022/06/13 07:53:52;;;;;;;6.50;4.27;;;23.00;98.80;;;;;;4420094;28;658066;-66
2022/06/13 07:56:39;;;;;;;9.90;4.83;;;23.40;90.90;;;;;;4429264;28;656449;-66
2022/06/13 07:59:29;;;;;;;11.97;4.67;;;23.70;93.30;;;;;;4423307;28;656862;-66
2022/06/13 08:02:18;;;;;;;7.30;4.47;;;23.10;94.80;;;;;;4408292;28;658126;-66
2022/06/13 08:05:06;;;;;;;10.27;4.07;;;22.90;95.10;;;;;;4410351;28;656984;-66
2022/06/13 08:07:53;;;;;;;9.43;3.90;;;22.80;94.80;;;;;;4434584;28;659042;-66
2022/06/13 08:10:40;;;;;;;6.60;2.97;;;22.40;90.70;;;;;;4429233;28;656562;-66
2022/06/13 08:13:28;;;;;;;8.53;3.40;;;22.00;92.40;;;;;;4438109;28;657766;-66
2022/06/13 08:16:15;;;;;;;8.63;3.37;;;22.10;94.00;;;;;;4436319;28;656523;-66
2022/06/13 08:19:04;;;;;;;7.93;3.50;;;21.90;92.70;;;;;;4448192;28;657668;-65
2022/06/13 08:21:51;;;;;;;9.93;3.97;;;21.90;92.00;;;;;;4423054;28;656782;-66
2022/06/13 08:24:38;;;;;;;7.43;3.83;;;22.10;95.00;;;;;;4444659;28;657274;-66
2022/06/13 08:27:26;;;;;;;6.00;3.30;;;21.90;96.70;;;;;;4420139;28;656639;-65
2022/06/13 08:30:14;;;;;;;10.47;4.30;;;21.70;96.10;;;;;;4439675;28;657087;-66
2022/06/13 08:33:01;;;;;;;8.33;4.40;;;21.10;99.90;;;;;;4424054;28;658015;-66
2022/06/13 08:35:49;;;;;;;9.47;4.93;;;21.10;99.90;;;;;;4443616;28;657406;-66
2022/06/13 08:38:37;;;;;;;6.90;4.03;;;20.90;99.90;;;;;;4421319;28;657477;-66
2022/06/13 08:41:29;;;;;;;5.40;3.90;;;20.80;99.90;;;;;;4441768;28;656517;-66
2022/06/13 08:44:31;;;;;;;8.27;3.90;;;20.40;99.90;;;;;;4418371;28;657004;-66
2022/06/13 08:47:23;;;;;;;4.47;3.10;;;20.20;99.90;;;;;;4413243;28;656790;-66
2022/06/13 08:50:33;;;;;;;6.47;2.83;;;20.10;99.90;;;;;;4408512;28;656749;-66
2022/06/13 08:53:24;;;;;;;5.67;2.67;;;20.30;99.90;;;;;;4404210;28;658042;-66
2022/06/13 08:56:12;;;;;;;6.70;2.60;;;20.10;99.90;;;;;;4425159;28;657720;-65
2022/06/13 08:59:22;;;;;;;2.63;2.20;;;20.00;99.90;;;;;;4442023;28;656546;-66
2022/06/13 09:02:11;;;;;;;3.50;2.50;;;19.70;99.90;;;;;;4418272;28;656902;-66
2022/06/13 09:05:00;;;;;;;8.10;2.70;;;19.90;99.90;;;;;;4422351;28;657542;-66
2022/06/13 09:07:50;;;;;;;7.33;2.70;;;20.00;99.90;;;;;;4414215;28;657772;-65
2022/06/13 09:10:41;;;;;;;6.77;2.57;;;20.30;99.90;;;;;;4411997;28;657742;-66
2022/06/13 09:13:30;;;;;;;7.03;3.10;;;20.40;99.90;;;;;;4421178;28;657567;-66
2022/06/13 09:16:20;;;;;;;6.13;2.67;;;20.60;99.90;;;;;;4420383;28;657796;-66
2022/06/13 09:19:13;;;;;;;6.53;2.60;;;21.10;99.90;;;;;;4420830;28;657565;-66
2022/06/13 09:22:01;;;;;;;5.30;2.70;;;20.70;99.90;;;;;;4400474;28;656762;-66
2022/06/13 09:24:52;;;;;;;6.77;3.10;;;20.80;99.90;;;;;;4440988;28;656739;-66
2022/06/13 09:27:44;;;;;;;7.07;3.10;;;20.90;99.90;;;;;;4413075;28;656800;-66
2022/06/13 09:30:34;;;;;;;5.73;3.00;;;21.00;99.90;;;;;;4418959;28;656803;-66
2022/06/13 09:33:23;;;;;;;3.63;2.37;;;21.00;99.90;;;;;;4420748;28;657208;-66
2022/06/13 09:36:17;;;;;;;5.97;2.60;;;21.00;99.90;;;;;;4429526;28;656392;-66
2022/06/13 09:39:06;;;;;;;5.30;2.70;;;20.90;99.90;;;;;;4418360;28;657455;-66
2022/06/13 09:42:07;;;;;;;5.60;2.53;;;20.60;99.90;;;;;;4407535;28;657182;-65
2022/06/13 09:45:22;;;;;;;4.13;2.30;;;20.40;99.90;;;;;;4417479;28;657983;-66
2022/06/13 09:48:16;;;;;;;5.20;3.00;;;20.40;99.90;;;;;;4411537;28;656692;-65
2022/06/13 09:51:09;;;;;;;3.40;2.50;;;20.00;99.90;;;;;;4417721;28;656930;-66
2022/06/13 09:54:01;;;;;;;3.07;2.30;;;19.80;99.90;;;;;;4423543;28;656185;-65
2022/06/13 09:56:51;;;;;;;3.70;2.63;;;19.50;99.90;;;;;;4403525;28;657622;-65
2022/06/13 09:59:48;;;;;;;4.17;2.70;;;19.30;99.90;;;;;;4415459;28;656932;-65
2022/06/13 10:02:43;;;;;;;6.17;2.50;;;19.40;99.90;;;;;;4407959;28;657066;-66
2022/06/13 10:05:36;;;;;;;5.33;2.70;;;19.70;99.90;;;;;;4394599;28;656613;-66
2022/06/13 10:08:41;;;;;;;3.30;2.13;;;19.70;99.90;;;;;;4415235;28;658193;-66
2022/06/13 10:11:38;;;;;;;7.07;2.60;;;20.00;99.90;;;;;;4417206;28;657312;-66
2022/06/13 10:14:53;;;;;;;5.50;2.40;;;19.90;99.90;;;;;;4403152;28;657103;-66
2022/06/13 10:17:53;;;;;;;4.20;2.80;;;20.10;99.90;;;;;;4397532;28;656695;-66
2022/06/13 10:20:45;;;;;;;4.53;2.37;;;20.40;99.90;;;;;;4405375;28;656528;-66
2022/06/13 10:23:38;;;;;;;3.93;2.37;;;20.70;99.90;;;;;;4422503;28;657130;-66
2022/06/13 10:26:29;;;;;;;2.57;2.30;;;20.60;99.90;;;;;;4396020;28;657266;-66
2022/06/13 10:29:34;;;;;;;4.33;2.43;;;20.10;99.90;;;;;;4419012;28;656754;-66
2022/06/13 10:32:28;;;;;;;2.83;2.17;;;19.90;99.90;;;;;;4414996;28;657214;-65
2022/06/13 10:35:23;;;;;;;5.50;2.20;;;19.70;99.90;;;;;;4397961;28;656540;-66
2022/06/13 10:38:32;;;;;;;2.47;2.03;;;19.40;99.90;;;;;;4388824;28;656780;-65
2022/06/13 10:41:19;;;;;;;6.00;2.50;;;19.00;99.90;;;;;;4420414;28;656077;-65
2022/06/13 10:44:08;;;;;;;3.77;2.50;;;18.70;99.90;;;;;;4425649;28;657133;-65
2022/06/13 10:46:59;;;;;;;3.87;2.40;;;18.50;99.90;;;;;;4430037;28;656859;-65
2022/06/13 10:49:48;;;;;;;4.27;2.50;;;18.40;99.90;;;;;;4433008;28;656517;-66
2022/06/13 10:52:40;;;;;;;3.27;2.00;;;18.30;99.90;;;;;;4428573;28;656233;-65
2022/06/13 10:55:27;;;;;;;3.23;2.53;;;18.40;99.90;;;;;;4415278;28;657140;-66
2022/06/13 10:58:17;;;;;;;4.20;2.70;;;18.50;99.90;;;;;;4443645;28;656528;-66
2022/06/13 11:01:07;;;;;;;4.83;2.63;;;18.50;99.90;;;;;;4423157;28;656838;-65
2022/06/13 11:04:06;;;;;;;5.70;2.57;;;18.50;99.90;;;;;;4406837;28;657880;-66
2022/06/13 11:06:54;;;;;;;2.80;2.50;;;18.70;99.90;;;;;;4421787;28;657543;-66
2022/06/13 11:09:43;;;;;;;2.90;2.37;;;18.80;99.90;;;;;;4418789;28;656359;-65
2022/06/13 11:12:31;;;;;;;3.80;2.50;;;18.90;99.90;;;;;;4423204;28;656645;-66
2022/06/13 11:24:55;;;;;;;7.33;3.00;;;19.30;99.90;;;;;;4416461;28;657010;-66
2022/06/13 11:27:42;;;;;;;6.90;2.77;;;19.30;99.90;;;;;;4388337;28;656685;-66
2022/06/13 11:30:37;;;;;;;3.87;2.63;;;19.20;99.90;;;;;;4431462;28;656730;-66
2022/06/13 11:33:26;;;;;;;4.90;2.63;;;19.10;99.90;;;;;;4409606;28;656667;-66
2022/06/13 11:36:22;;;;;;;5.67;2.60;;;19.10;99.90;;;;;;4416424;28;658337;-66
2022/06/13 11:39:09;;;;;;;10.20;2.87;;;19.20;99.90;;;;;;4417766;28;657578;-66
2022/06/13 11:41:57;;;;;;;4.20;2.50;;;19.30;99.90;;;;;;4424804;28;657765;-66
2022/06/13 11:44:48;;;;;;;5.53;2.60;;;19.70;99.90;;;;;;4433925;28;656487;-66
2022/06/13 11:47:39;;;;;;;4.37;2.60;;;19.70;99.90;;;;;;4428346;28;656220;-66
2022/06/13 11:50:27;;;;;;;4.47;2.70;;;19.70;99.90;;;;;;4425665;28;657063;-66
2022/06/13 11:56:30;;;;;;;8.43;2.70;;;19.80;99.90;;;;;;4362852;28;657959;-65
2022/06/13 11:59:19;;;;;;;3.90;2.87;;;19.40;99.90;;;;;;4423527;28;658049;-65
2022/06/13 12:02:16;;;;;;;8.63;2.80;;;19.30;99.90;;;;;;4424066;28;658204;-66
2022/06/13 12:05:13;;;;;;;4.30;2.57;;;19.40;99.90;;;;;;4423988;28;656765;-66
2022/06/13 12:08:02;;;;;;;3.90;2.23;;;19.50;99.90;;;;;;4405254;28;656853;-65
2022/06/13 12:11:00;;;;;;;4.13;2.30;;;19.70;99.90;;;;;;4433579;28;657241;-66
2022/06/13 12:13:48;;;;;;;3.37;2.00;;;19.80;99.90;;;;;;4401173;28;656652;-66
2022/06/13 12:16:40;;;;;;;4.87;2.20;;;20.20;99.90;;;;;;4428164;28;656608;-66
2022/06/13 12:19:33;;;;;;;3.30;2.33;;;20.00;99.90;;;;;;4424530;28;657842;-65
2022/06/13 12:22:21;;;;;;;6.13;2.70;;;19.80;99.90;;;;;;4415083;28;656514;-65
2022/06/13 12:25:13;;;;;;;3.95;3.08;;;19.70;99.90;;;;;;4443633;28;657743;-65
2022/06/13 12:28:03;;;;;;;7.67;3.50;;;19.90;99.90;;;;;;4417272;28;656569;-66
2022/06/13 12:30:52;;;;;;;7.70;2.90;;;20.30;99.90;;;;;;4429468;28;656237;-66
2022/06/13 12:33:47;;;;;;;5.27;3.53;;;20.30;99.90;;;;;;4445906;28;656454;-66
2022/06/13 12:36:44;;;;;;;4.57;2.93;;;20.50;99.90;;;;;;4423554;28;656337;-66
2022/06/13 12:39:40;;;;;;;6.00;3.17;;;20.70;99.90;;;;;;4425102;28;656300;-66
2022/06/13 12:42:54;;;;;;;8.03;3.17;;;21.40;99.90;;;;;;4396506;28;656726;-66
2022/06/13 12:46:04;;;;;;;6.40;2.90;;;21.10;99.90;;;;;;4403397;28;657113;-66
2022/06/13 12:48:59;;;;;;;4.70;3.37;;;20.40;99.90;;;;;;4388932;28;657020;-66
2022/06/13 12:51:51;;;;;;;5.77;3.33;;;19.90;99.90;;;;;;4409486;28;656458;-66
2022/06/13 12:54:45;;;;;;;4.77;2.47;;;19.80;99.90;;;;;;4405680;28;657460;-65
2022/06/13 12:57:47;;;;;;;4.80;2.43;;;19.60;99.90;;;;;;4410214;28;656501;-65
2022/06/13 13:00:36;;;;;;;2.30;2.10;;;19.50;99.90;;;;;;4405743;28;656356;-66
2022/06/13 13:03:43;;;;;;;3.13;1.90;;;19.40;99.90;;;;;;4406018;28;657706;-66
2022/06/13 13:06:38;;;;;;;4.17;1.90;;;19.10;99.90;;;;;;4386683;28;656611;-65
2022/06/13 13:09:35;;;;;;;4.00;2.20;;;18.90;99.90;;;;;;4393836;28;656528;-65
2022/06/13 13:12:45;;;;;;;2.77;2.30;;;18.70;99.90;;;;;;4409503;28;656742;-66
2022/06/13 13:15:34;;;;;;;4.77;2.50;;;18.60;99.90;;;;;;4386317;28;657441;-65
2022/06/13 13:18:27;;;;;;;6.40;2.90;;;18.50;99.90;;;;;;4425224;28;656386;-65
2022/06/13 13:21:19;;;;;;;3.17;2.73;;;18.40;99.90;;;;;;4417854;28;657120;-65
2022/06/13 13:24:15;;;;;;;7.47;3.10;;;18.20;99.90;;;;;;4422772;28;656655;-65
2022/06/13 13:27:03;;;;;;;5.40;3.80;;;18.00;99.90;;;;;;4391438;28;658053;-65
2022/06/13 13:29:57;;;;;;;5.60;3.93;;;17.80;99.90;;;;;;4422565;28;656617;-65
2022/06/13 13:32:53;;;;;;;5.83;4.40;;;17.60;99.90;;;;;;4413431;28;656823;-66
2022/06/13 13:35:43;;;;;;;9.50;5.30;;;17.40;99.90;;;;;;4406042;28;656815;-65
2022/06/13 13:38:31;;;;;;;8.43;6.13;;;17.10;99.90;;;;;;4425969;28;656828;-66
2022/06/13 13:41:22;;;;;;;12.93;6.70;;;16.70;99.90;;;;;;4451924;28;656369;-65
2022/06/13 13:44:12;;;;;;;13.30;7.60;;;16.20;99.90;;;;;;4437854;28;657313;-64
2022/06/13 13:47:03;;;;;;;12.50;7.77;;;15.80;99.90;;;;;;4440536;28;657569;-65
2022/06/13 13:49:52;;;;;;;17.93;7.13;;;15.70;99.90;;;;;;4430301;28;657767;-65
2022/06/13 13:52:41;;;;;;;10.30;7.33;;;15.50;99.90;;;;;;4446678;28;657598;-65
2022/06/13 13:55:32;;;;;;;11.30;7.97;;;15.50;99.90;;;;;;4422501;28;658307;-66
2022/06/13 13:58:24;;;;;;;11.63;7.20;;;15.50;99.90;;;;;;4413597;28;657469;-66
2022/06/13 14:01:32;;;;;;;10.67;6.80;;;15.50;99.90;;;;;;4399917;28;659111;-66
2022/06/13 14:04:28;;;;;;;11.03;5.57;;;15.40;99.90;;;;;;4411639;28;657404;-66
2022/06/13 14:07:42;;;;;;;7.27;5.20;;;15.30;99.90;;;;;;4399286;28;657668;-65
2022/06/13 14:10:30;;;;;;;7.00;4.30;;;15.40;99.90;;;;;;4410127;28;656582;-65
2022/06/13 14:13:30;;;;;;;9.03;4.47;;;15.30;99.90;;;;;;4427535;28;657055;-66
2022/06/13 14:16:19;;;;;;;7.97;4.20;;;15.20;99.90;;;;;;4399651;28;659814;-66
2022/06/13 14:19:20;;;;;;;6.00;4.20;;;15.00;99.90;;;;;;4428672;28;656351;-65
2022/06/13 14:22:18;;;;;;;7.13;3.93;;;14.80;99.90;;;;;;4426209;28;656886;-66
2022/06/13 14:25:07;;;;;;;7.10;3.60;;;14.70;99.90;;;;;;4415982;28;657167;-66
2022/06/13 14:27:56;;;;;;;6.47;4.23;;;14.70;99.90;;;;;;4439219;28;657064;-66
2022/06/13 14:31:06;;;;;;;5.13;3.50;;;14.50;99.90;;;;;;4423824;28;657670;-66
2022/06/13 14:37:11;;;;;;;10.33;3.40;;;14.30;99.90;;;;;;4413999;28;656287;-65
2022/06/13 14:39:59;;;;;;;5.90;3.63;;;14.20;99.90;;;;;;4437757;28;657118;-66
2022/06/13 14:42:50;;;;;;;7.77;4.10;;;14.20;99.90;;;;;;4432917;28;656913;-66
2022/06/13 14:45:38;;;;;;;6.47;4.10;;;14.10;99.90;;;;;;4421156;28;658560;-66
2022/06/13 14:48:38;;;;;;;8.67;4.03;;;14.10;99.90;;;;;;4422673;28;656482;-66
2022/06/13 14:51:30;;;;;;;5.83;3.70;;;14.10;99.90;;;;;;4407606;28;656577;-66
2022/06/13 14:54:37;;;;;;;7.13;3.70;;;14.00;99.90;;;;;;4430661;28;657563;-66
2022/06/13 14:57:57;;;;;;;5.53;4.43;;;13.90;99.90;;;;;;4423413;28;657222;-66
2022/06/13 15:01:15;;;;;;;6.87;4.80;;;14.00;99.90;;;;;;4420126;28;656747;-66
2022/06/13 15:04:28;;;;;;;8.80;4.37;;;14.10;99.90;;;;;;4402410;28;657287;-66
2022/06/13 15:07:23;;;;;;;11.43;4.30;;;14.00;99.90;;;;;;4408994;28;657003;-66
2022/06/13 15:10:14;;;;;;;7.57;4.37;;;13.90;99.90;;;;;;4401756;28;657602;-66